sensor_id;sensor_type;location;lat;lon;timestamp;pressure;altitude;pressure_sealevel;temperature;humidity
74615;BME280;63121;51.458;-0.110;2023-03-01T00:01:07;103133.03;;;9.23;56.29
74615;BME280;63121;51.458;-0.110;2023-03-01T00:03:33;103129.44;;;8.92;56.98
74615;BME280;63121;51.458;-0.110;2023-03-01T00:05:59;103131.59;;;9.06;57.10
74615;BME280;63121;51.458;-0.110;2023-03-01T00:08:25;103142.56;;;9.00;56.94
74615;BME280;63121;51.458;-0.110;2023-03-01T00:11:00;103140.75;;;9.23;56.24
74615;BME280;63121;51.458;-0.110;2023-03-01T00:13:26;103142.06;;;9.36;56.13
74615;BME280;63121;51.458;-0.110;2023-03-01T00:15:51;103140.66;;;9.20;56.20
74615;BME280;63121;51.458;-0.110;2023-03-01T00:18:19;103142.25;;;9.16;56.49
74615;BME280;63121;51.458;-0.110;2023-03-01T00:20:52;103151.75;;;8.92;57.04
74615;BME280;63121;51.458;-0.110;2023-03-01T00:23:18;103147.63;;;8.97;56.67
74615;BME280;63121;51.458;-0.110;2023-03-01T00:25:44;103145.75;;;8.93;56.30
74615;BME280;63121;51.458;-0.110;2023-03-01T00:28:10;103152.25;;;8.82;56.49
74615;BME280;63121;51.458;-0.110;2023-03-01T00:30:35;103151.41;;;8.83;56.28
74615;BME280;63121;51.458;-0.110;2023-03-01T00:33:00;103153.53;;;8.94;56.47
74615;BME280;63121;51.458;-0.110;2023-03-01T00:35:26;103147.84;;;8.55;56.68
74615;BME280;63121;51.458;-0.110;2023-03-01T00:37:51;103158.31;;;8.84;56.38
74615;BME280;63121;51.458;-0.110;2023-03-01T00:40:23;103147.47;;;8.92;56.30
74615;BME280;63121;51.458;-0.110;2023-03-01T00:42:49;103154.84;;;8.83;55.68
74615;BME280;63121;51.458;-0.110;2023-03-01T00:45:14;103147.91;;;8.81;55.74
74615;BME280;63121;51.458;-0.110;2023-03-01T00:47:40;103138.53;;;9.07;55.52
74615;BME280;63121;51.458;-0.110;2023-03-01T00:50:06;103141.75;;;9.01;55.55
74615;BME280;63121;51.458;-0.110;2023-03-01T00:52:31;103139.66;;;9.15;55.00
74615;BME280;63121;51.458;-0.110;2023-03-01T00:54:56;103139.13;;;9.00;55.33
74615;BME280;63121;51.458;-0.110;2023-03-01T00:57:23;103143.31;;;9.22;55.01
74615;BME280;63121;51.458;-0.110;2023-03-01T00:59:48;103131.84;;;9.39;54.63
74615;BME280;63121;51.458;-0.110;2023-03-01T01:02:14;103133.59;;;9.40;54.31
74615;BME280;63121;51.458;-0.110;2023-03-01T01:04:39;103133.22;;;9.28;54.94
74615;BME280;63121;51.458;-0.110;2023-03-01T01:07:04;103132.84;;;9.43;54.72
74615;BME280;63121;51.458;-0.110;2023-03-01T01:09:30;103126.78;;;9.15;55.70
74615;BME280;63121;51.458;-0.110;2023-03-01T01:11:56;103134.84;;;9.26;55.64
74615;BME280;63121;51.458;-0.110;2023-03-01T01:14:21;103126.91;;;9.20;55.46
74615;BME280;63121;51.458;-0.110;2023-03-01T01:16:47;103132.22;;;8.99;56.60
74615;BME280;63121;51.458;-0.110;2023-03-01T01:19:13;103136.06;;;8.86;57.13
74615;BME280;63121;51.458;-0.110;2023-03-01T01:21:38;103132.19;;;8.73;57.30
74615;BME280;63121;51.458;-0.110;2023-03-01T01:24:04;103132.81;;;8.91;57.29
74615;BME280;63121;51.458;-0.110;2023-03-01T01:26:32;103123.00;;;9.05;56.80
74615;BME280;63121;51.458;-0.110;2023-03-01T01:28:59;103131.03;;;9.14;56.84
74615;BME280;63121;51.458;-0.110;2023-03-01T01:31:25;103120.44;;;8.81;58.70
74615;BME280;63121;51.458;-0.110;2023-03-01T01:33:52;103123.63;;;8.74;60.05
74615;BME280;63121;51.458;-0.110;2023-03-01T01:36:17;103126.09;;;8.47;61.31
74615;BME280;63121;51.458;-0.110;2023-03-01T01:38:43;103128.06;;;8.31;62.39
74615;BME280;63121;51.458;-0.110;2023-03-01T01:41:09;103129.31;;;8.19;62.20
74615;BME280;63121;51.458;-0.110;2023-03-01T01:43:45;103117.94;;;8.36;62.04
74615;BME280;63121;51.458;-0.110;2023-03-01T01:48:45;103124.66;;;8.32;62.58
74615;BME280;63121;51.458;-0.110;2023-03-01T01:51:19;103120.72;;;8.41;62.12
74615;BME280;63121;51.458;-0.110;2023-03-01T01:53:50;103121.00;;;8.26;62.31
74615;BME280;63121;51.458;-0.110;2023-03-01T01:56:17;103108.22;;;8.05;63.34
74615;BME280;63121;51.458;-0.110;2023-03-01T01:58:43;103108.00;;;8.45;62.42
74615;BME280;63121;51.458;-0.110;2023-03-01T02:01:10;103102.28;;;8.07;63.16
74615;BME280;63121;51.458;-0.110;2023-03-01T02:03:38;103104.84;;;8.30;62.66
74615;BME280;63121;51.458;-0.110;2023-03-01T02:06:15;103101.34;;;8.28;62.87
74615;BME280;63121;51.458;-0.110;2023-03-01T02:08:44;103089.31;;;8.27;62.64
74615;BME280;63121;51.458;-0.110;2023-03-01T02:11:11;103089.03;;;8.42;62.31
74615;BME280;63121;51.458;-0.110;2023-03-01T02:13:40;103088.28;;;7.99;63.03
74615;BME280;63121;51.458;-0.110;2023-03-01T02:16:10;103077.03;;;8.20;62.97
74615;BME280;63121;51.458;-0.110;2023-03-01T02:18:37;103083.78;;;7.93;63.63
74615;BME280;63121;51.458;-0.110;2023-03-01T02:24:38;103078.47;;;7.89;63.44
74615;BME280;63121;51.458;-0.110;2023-03-01T02:27:06;103065.81;;;8.18;62.81
74615;BME280;63121;51.458;-0.110;2023-03-01T02:29:31;103072.25;;;8.29;62.94
74615;BME280;63121;51.458;-0.110;2023-03-01T02:31:59;103073.59;;;8.42;62.06
74615;BME280;63121;51.458;-0.110;2023-03-01T02:34:27;103066.78;;;7.74;64.05
74615;BME280;63121;51.458;-0.110;2023-03-01T02:36:59;103062.56;;;7.77;63.94
74615;BME280;63121;51.458;-0.110;2023-03-01T02:39:28;103060.66;;;8.18;63.21
74615;BME280;63121;51.458;-0.110;2023-03-01T02:41:56;103049.34;;;8.12;63.14
74615;BME280;63121;51.458;-0.110;2023-03-01T02:44:24;103051.44;;;8.00;63.88
74615;BME280;63121;51.458;-0.110;2023-03-01T02:46:51;103063.16;;;7.92;63.91
74615;BME280;63121;51.458;-0.110;2023-03-01T02:52:21;103053.03;;;7.97;63.75
74615;BME280;63121;51.458;-0.110;2023-03-01T02:57:10;103046.78;;;7.90;63.68
74615;BME280;63121;51.458;-0.110;2023-03-01T02:59:37;103039.13;;;8.14;63.51
74615;BME280;63121;51.458;-0.110;2023-03-01T03:02:29;103041.09;;;7.99;63.57
74615;BME280;63121;51.458;-0.110;2023-03-01T03:05:11;103035.38;;;7.61;64.85
74615;BME280;63121;51.458;-0.110;2023-03-01T03:07:39;103034.69;;;7.65;64.33
74615;BME280;63121;51.458;-0.110;2023-03-01T03:10:07;103029.44;;;7.84;63.74
74615;BME280;63121;51.458;-0.110;2023-03-01T03:12:34;103030.09;;;8.03;63.33
74615;BME280;63121;51.458;-0.110;2023-03-01T03:14:59;103031.31;;;7.66;64.54
74615;BME280;63121;51.458;-0.110;2023-03-01T03:17:24;103031.78;;;8.25;62.89
74615;BME280;63121;51.458;-0.110;2023-03-01T03:19:50;103033.19;;;8.17;62.64
74615;BME280;63121;51.458;-0.110;2023-03-01T03:22:15;103027.34;;;7.51;64.69
74615;BME280;63121;51.458;-0.110;2023-03-01T03:24:41;103030.47;;;7.67;64.88
74615;BME280;63121;51.458;-0.110;2023-03-01T03:27:07;103024.47;;;7.89;63.64
74615;BME280;63121;51.458;-0.110;2023-03-01T03:29:33;103025.31;;;8.12;62.85
74615;BME280;63121;51.458;-0.110;2023-03-01T03:31:58;103020.00;;;8.31;62.22
74615;BME280;63121;51.458;-0.110;2023-03-01T03:34:24;103014.97;;;8.10;62.79
74615;BME280;63121;51.458;-0.110;2023-03-01T03:36:54;103017.31;;;8.04;63.71
74615;BME280;63121;51.458;-0.110;2023-03-01T03:39:23;103019.09;;;8.05;63.37
74615;BME280;63121;51.458;-0.110;2023-03-01T03:41:48;103005.06;;;7.74;64.04
74615;BME280;63121;51.458;-0.110;2023-03-01T03:44:13;103019.00;;;8.04;63.63
74615;BME280;63121;51.458;-0.110;2023-03-01T03:46:39;103016.06;;;7.70;64.51
74615;BME280;63121;51.458;-0.110;2023-03-01T03:49:04;103010.94;;;7.94;63.78
74615;BME280;63121;51.458;-0.110;2023-03-01T03:51:29;103013.75;;;8.25;63.22
74615;BME280;63121;51.458;-0.110;2023-03-01T03:53:55;103019.72;;;8.24;63.02
74615;BME280;63121;51.458;-0.110;2023-03-01T03:56:20;103005.28;;;8.27;62.17
74615;BME280;63121;51.458;-0.110;2023-03-01T03:58:45;103003.38;;;7.52;64.68
74615;BME280;63121;51.458;-0.110;2023-03-01T04:01:11;102999.47;;;7.62;64.83
74615;BME280;63121;51.458;-0.110;2023-03-01T04:03:36;103004.22;;;7.74;64.08
74615;BME280;63121;51.458;-0.110;2023-03-01T04:06:02;103006.22;;;8.05;63.57
74615;BME280;63121;51.458;-0.110;2023-03-01T04:08:29;102999.50;;;8.34;62.12
74615;BME280;63121;51.458;-0.110;2023-03-01T04:11:02;102997.28;;;7.96;63.67
74615;BME280;63121;51.458;-0.110;2023-03-01T04:13:48;102997.72;;;8.08;63.47
74615;BME280;63121;51.458;-0.110;2023-03-01T04:16:14;102994.03;;;7.77;64.10
74615;BME280;63121;51.458;-0.110;2023-03-01T04:18:39;102980.69;;;7.87;64.00
74615;BME280;63121;51.458;-0.110;2023-03-01T04:21:04;102985.84;;;7.65;64.55
74615;BME280;63121;51.458;-0.110;2023-03-01T04:23:30;102980.88;;;7.69;64.49
74615;BME280;63121;51.458;-0.110;2023-03-01T04:25:57;102971.50;;;7.70;64.66
74615;BME280;63121;51.458;-0.110;2023-03-01T04:28:31;102979.38;;;7.74;64.38
74615;BME280;63121;51.458;-0.110;2023-03-01T04:31:06;102976.97;;;7.79;64.51
74615;BME280;63121;51.458;-0.110;2023-03-01T04:33:38;102967.19;;;7.46;65.57
74615;BME280;63121;51.458;-0.110;2023-03-01T04:36:04;102973.50;;;8.01;63.66
74615;BME280;63121;51.458;-0.110;2023-03-01T04:38:30;102977.41;;;7.91;64.05
74615;BME280;63121;51.458;-0.110;2023-03-01T04:40:55;102971.34;;;7.67;64.93
74615;BME280;63121;51.458;-0.110;2023-03-01T04:43:21;102969.03;;;7.73;64.98
74615;BME280;63121;51.458;-0.110;2023-03-01T04:45:46;102966.81;;;7.60;65.88
74615;BME280;63121;51.458;-0.110;2023-03-01T04:48:11;102969.84;;;7.49;65.47
74615;BME280;63121;51.458;-0.110;2023-03-01T04:50:37;102964.81;;;7.75;65.22
74615;BME280;63121;51.458;-0.110;2023-03-01T04:53:02;102966.69;;;8.27;64.22
74615;BME280;63121;51.458;-0.110;2023-03-01T04:55:28;102962.69;;;7.41;66.70
74615;BME280;63121;51.458;-0.110;2023-03-01T04:57:54;102967.63;;;7.59;67.10
74615;BME280;63121;51.458;-0.110;2023-03-01T05:00:21;102961.13;;;7.44;67.96
74615;BME280;63121;51.458;-0.110;2023-03-01T05:02:53;102958.47;;;7.89;66.18
74615;BME280;63121;51.458;-0.110;2023-03-01T05:05:39;102956.28;;;8.00;65.60
74615;BME280;63121;51.458;-0.110;2023-03-01T05:08:07;102962.84;;;7.45;67.27
74615;BME280;63121;51.458;-0.110;2023-03-01T05:10:35;102963.31;;;7.58;67.44
74615;BME280;63121;51.458;-0.110;2023-03-01T05:13:02;102960.44;;;7.05;69.21
74615;BME280;63121;51.458;-0.110;2023-03-01T05:15:30;102961.75;;;7.39;68.69
74615;BME280;63121;51.458;-0.110;2023-03-01T05:17:57;102957.16;;;7.31;68.81
74615;BME280;63121;51.458;-0.110;2023-03-01T05:20:25;102956.03;;;7.23;70.04
74615;BME280;63121;51.458;-0.110;2023-03-01T05:22:51;102958.78;;;7.28;69.76
74615;BME280;63121;51.458;-0.110;2023-03-01T05:25:17;102958.63;;;7.02;70.52
74615;BME280;63121;51.458;-0.110;2023-03-01T05:27:43;102961.56;;;7.34;70.01
74615;BME280;63121;51.458;-0.110;2023-03-01T05:30:09;102958.59;;;7.23;69.99
74615;BME280;63121;51.458;-0.110;2023-03-01T05:32:42;102946.69;;;7.25;70.29
74615;BME280;63121;51.458;-0.110;2023-03-01T05:35:12;102947.53;;;7.71;69.00
74615;BME280;63121;51.458;-0.110;2023-03-01T05:37:47;102956.56;;;7.84;68.17
74615;BME280;63121;51.458;-0.110;2023-03-01T05:40:15;102949.84;;;7.63;69.33
74615;BME280;63121;51.458;-0.110;2023-03-01T05:43:08;102940.59;;;7.46;68.92
74615;BME280;63121;51.458;-0.110;2023-03-01T05:45:36;102947.41;;;7.23;69.85
74615;BME280;63121;51.458;-0.110;2023-03-01T05:48:01;102942.28;;;7.68;68.57
74615;BME280;63121;51.458;-0.110;2023-03-01T05:50:29;102945.44;;;7.61;68.69
74615;BME280;63121;51.458;-0.110;2023-03-01T05:53:00;102946.16;;;7.81;67.91
74615;BME280;63121;51.458;-0.110;2023-03-01T05:55:27;102941.38;;;7.43;68.74
74615;BME280;63121;51.458;-0.110;2023-03-01T05:57:53;102951.38;;;7.82;67.90
74615;BME280;63121;51.458;-0.110;2023-03-01T06:00:20;102940.75;;;7.50;68.58
74615;BME280;63121;51.458;-0.110;2023-03-01T06:02:48;102936.44;;;7.72;67.67
74615;BME280;63121;51.458;-0.110;2023-03-01T06:05:14;102938.09;;;7.71;67.71
74615;BME280;63121;51.458;-0.110;2023-03-01T06:07:40;102928.06;;;8.02;66.43
74615;BME280;63121;51.458;-0.110;2023-03-01T06:10:07;102934.47;;;7.89;67.22
74615;BME280;63121;51.458;-0.110;2023-03-01T06:12:36;102939.56;;;7.87;67.31
74615;BME280;63121;51.458;-0.110;2023-03-01T06:15:02;102940.22;;;8.06;66.38
74615;BME280;63121;51.458;-0.110;2023-03-01T06:17:33;102945.66;;;8.15;65.93
74615;BME280;63121;51.458;-0.110;2023-03-01T06:20:09;102940.66;;;7.70;67.41
74615;BME280;63121;51.458;-0.110;2023-03-01T06:22:36;102939.50;;;7.86;66.96
74615;BME280;63121;51.458;-0.110;2023-03-01T06:25:01;102943.25;;;7.71;67.01
74615;BME280;63121;51.458;-0.110;2023-03-01T06:27:27;102938.72;;;7.64;67.16
74615;BME280;63121;51.458;-0.110;2023-03-01T06:29:52;102941.47;;;7.93;66.23
74615;BME280;63121;51.458;-0.110;2023-03-01T06:32:18;102947.03;;;7.81;66.71
74615;BME280;63121;51.458;-0.110;2023-03-01T06:34:43;102947.88;;;8.30;65.08
74615;BME280;63121;51.458;-0.110;2023-03-01T06:37:09;102948.84;;;7.60;67.42
74615;BME280;63121;51.458;-0.110;2023-03-01T06:39:34;102954.31;;;7.69;66.88
74615;BME280;63121;51.458;-0.110;2023-03-01T06:42:00;102952.13;;;8.04;66.17
74615;BME280;63121;51.458;-0.110;2023-03-01T06:44:25;102954.97;;;7.87;66.06
74615;BME280;63121;51.458;-0.110;2023-03-01T06:46:51;102960.81;;;7.83;66.68
74615;BME280;63121;51.458;-0.110;2023-03-01T06:49:16;102955.44;;;8.00;65.95
74615;BME280;63121;51.458;-0.110;2023-03-01T06:51:43;102957.06;;;7.98;66.12
74615;BME280;63121;51.458;-0.110;2023-03-01T06:54:09;102952.59;;;8.18;65.65
74615;BME280;63121;51.458;-0.110;2023-03-01T06:56:35;102958.44;;;8.12;65.56
74615;BME280;63121;51.458;-0.110;2023-03-01T06:59:00;102953.81;;;7.79;65.93
74615;BME280;63121;51.458;-0.110;2023-03-01T07:01:25;102957.06;;;7.98;66.02
74615;BME280;63121;51.458;-0.110;2023-03-01T07:03:51;102961.22;;;8.18;65.43
74615;BME280;63121;51.458;-0.110;2023-03-01T07:06:16;102959.28;;;7.88;66.09
74615;BME280;63121;51.458;-0.110;2023-03-01T07:08:42;102955.28;;;7.97;65.59
74615;BME280;63121;51.458;-0.110;2023-03-01T07:11:08;102955.63;;;8.06;65.75
74615;BME280;63121;51.458;-0.110;2023-03-01T07:13:33;102957.16;;;7.77;65.61
74615;BME280;63121;51.458;-0.110;2023-03-01T07:15:58;102955.94;;;8.15;65.51
74615;BME280;63121;51.458;-0.110;2023-03-01T07:18:24;102964.72;;;8.20;64.98
74615;BME280;63121;51.458;-0.110;2023-03-01T07:20:49;102966.97;;;8.11;65.07
74615;BME280;63121;51.458;-0.110;2023-03-01T07:23:15;102956.06;;;7.94;65.33
74615;BME280;63121;51.458;-0.110;2023-03-01T07:25:40;102955.09;;;8.14;64.58
74615;BME280;63121;51.458;-0.110;2023-03-01T07:28:06;102951.31;;;8.30;64.02
74615;BME280;63121;51.458;-0.110;2023-03-01T07:30:31;102961.81;;;7.87;65.41
74615;BME280;63121;51.458;-0.110;2023-03-01T07:32:57;102961.38;;;8.23;64.52
74615;BME280;63121;51.458;-0.110;2023-03-01T07:35:25;102961.63;;;8.30;64.33
74615;BME280;63121;51.458;-0.110;2023-03-01T07:37:51;102965.50;;;8.42;63.82
74615;BME280;63121;51.458;-0.110;2023-03-01T07:40:17;102958.47;;;8.13;64.80
74615;BME280;63121;51.458;-0.110;2023-03-01T07:42:42;102956.59;;;8.09;64.71
74615;BME280;63121;51.458;-0.110;2023-03-01T07:45:08;102952.22;;;8.07;64.75
74615;BME280;63121;51.458;-0.110;2023-03-01T07:47:33;102958.72;;;8.45;64.22
74615;BME280;63121;51.458;-0.110;2023-03-01T07:49:59;102955.06;;;8.64;63.30
74615;BME280;63121;51.458;-0.110;2023-03-01T07:52:26;102944.69;;;7.63;65.22
74615;BME280;63121;51.458;-0.110;2023-03-01T07:54:51;102955.66;;;8.07;64.41
74615;BME280;63121;51.458;-0.110;2023-03-01T07:57:17;102953.00;;;8.04;64.72
74615;BME280;63121;51.458;-0.110;2023-03-01T07:59:42;102958.91;;;8.26;63.71
74615;BME280;63121;51.458;-0.110;2023-03-01T08:02:08;102949.44;;;8.01;64.04
74615;BME280;63121;51.458;-0.110;2023-03-01T08:04:34;102951.16;;;8.00;64.25
74615;BME280;63121;51.458;-0.110;2023-03-01T08:07:00;102946.56;;;7.91;64.29
74615;BME280;63121;51.458;-0.110;2023-03-01T08:09:25;102953.13;;;7.83;64.34
74615;BME280;63121;51.458;-0.110;2023-03-01T08:11:50;102950.84;;;7.92;64.03
74615;BME280;63121;51.458;-0.110;2023-03-01T08:14:16;102952.47;;;7.89;64.15
74615;BME280;63121;51.458;-0.110;2023-03-01T08:16:41;102958.22;;;8.06;63.46
74615;BME280;63121;51.458;-0.110;2023-03-01T08:19:09;102956.06;;;8.18;63.30
74615;BME280;63121;51.458;-0.110;2023-03-01T08:21:35;102949.78;;;8.10;63.52
74615;BME280;63121;51.458;-0.110;2023-03-01T08:24:02;102946.63;;;7.93;63.34
74615;BME280;63121;51.458;-0.110;2023-03-01T08:26:27;102944.94;;;8.19;62.63
74615;BME280;63121;51.458;-0.110;2023-03-01T08:28:53;102940.50;;;8.39;62.72
74615;BME280;63121;51.458;-0.110;2023-03-01T08:33:46;102935.66;;;7.99;63.35
74615;BME280;63121;51.458;-0.110;2023-03-01T08:36:20;102935.03;;;8.55;61.83
74615;BME280;63121;51.458;-0.110;2023-03-01T08:38:46;102929.97;;;8.57;61.69
74615;BME280;63121;51.458;-0.110;2023-03-01T08:41:11;102945.41;;;8.57;61.79
74615;BME280;63121;51.458;-0.110;2023-03-01T08:43:37;102946.34;;;9.13;60.53
74615;BME280;63121;51.458;-0.110;2023-03-01T08:46:02;102938.81;;;9.20;59.80
74615;BME280;63121;51.458;-0.110;2023-03-01T08:48:28;102935.38;;;8.92;60.25
74615;BME280;63121;51.458;-0.110;2023-03-01T08:50:53;102931.69;;;9.12;60.07
74615;BME280;63121;51.458;-0.110;2023-03-01T08:53:19;102931.91;;;8.91;60.08
74615;BME280;63121;51.458;-0.110;2023-03-01T08:55:44;102927.72;;;8.95;59.63
74615;BME280;63121;51.458;-0.110;2023-03-01T08:58:09;102930.25;;;8.93;59.99
74615;BME280;63121;51.458;-0.110;2023-03-01T09:00:35;102926.75;;;8.64;60.40
74615;BME280;63121;51.458;-0.110;2023-03-01T09:03:01;102925.59;;;9.09;59.95
74615;BME280;63121;51.458;-0.110;2023-03-01T09:05:26;102928.88;;;8.50;61.11
74615;BME280;63121;51.458;-0.110;2023-03-01T09:07:51;102927.53;;;8.89;60.63
74615;BME280;63121;51.458;-0.110;2023-03-01T09:10:17;102923.50;;;8.97;59.90
74615;BME280;63121;51.458;-0.110;2023-03-01T09:12:42;102925.78;;;9.15;59.65
74615;BME280;63121;51.458;-0.110;2023-03-01T09:15:08;102924.03;;;9.44;58.43
74615;BME280;63121;51.458;-0.110;2023-03-01T09:17:33;102917.16;;;9.73;58.07
74615;BME280;63121;51.458;-0.110;2023-03-01T09:19:59;102914.84;;;9.83;58.10
74615;BME280;63121;51.458;-0.110;2023-03-01T09:22:25;102911.13;;;9.73;58.00
74615;BME280;63121;51.458;-0.110;2023-03-01T09:24:50;102902.28;;;9.65;58.39
74615;BME280;63121;51.458;-0.110;2023-03-01T09:27:15;102904.69;;;9.59;58.18
74615;BME280;63121;51.458;-0.110;2023-03-01T09:29:44;102902.63;;;9.77;58.34
74615;BME280;63121;51.458;-0.110;2023-03-01T09:32:09;102894.06;;;9.18;59.23
74615;BME280;63121;51.458;-0.110;2023-03-01T09:34:35;102895.88;;;9.50;58.59
74615;BME280;63121;51.458;-0.110;2023-03-01T09:37:20;102896.50;;;10.05;56.80
74615;BME280;63121;51.458;-0.110;2023-03-01T09:39:46;102889.78;;;10.45;56.10
74615;BME280;63121;51.458;-0.110;2023-03-01T09:42:12;102893.63;;;9.94;56.81
74615;BME280;63121;51.458;-0.110;2023-03-01T09:44:40;102888.75;;;10.73;55.80
74615;BME280;63121;51.458;-0.110;2023-03-01T09:47:19;102879.53;;;10.85;55.12
74615;BME280;63121;51.458;-0.110;2023-03-01T09:55:10;102875.69;;;10.67;54.74
74615;BME280;63121;51.458;-0.110;2023-03-01T09:57:53;102862.94;;;10.73;53.90
74615;BME280;63121;51.458;-0.110;2023-03-01T10:00:30;102868.25;;;10.81;53.40
74615;BME280;63121;51.458;-0.110;2023-03-01T10:06:01;102862.63;;;10.26;54.16
74615;BME280;63121;51.458;-0.110;2023-03-01T10:08:42;102866.53;;;9.77;55.30
74615;BME280;63121;51.458;-0.110;2023-03-01T10:11:21;102856.69;;;9.32;56.57
74615;BME280;63121;51.458;-0.110;2023-03-01T10:13:52;102862.97;;;9.73;56.27
74615;BME280;63121;51.458;-0.110;2023-03-01T10:16:38;102866.06;;;9.92;56.40
74615;BME280;63121;51.458;-0.110;2023-03-01T10:19:11;102857.72;;;9.69;57.73
74615;BME280;63121;51.458;-0.110;2023-03-01T10:21:42;102860.13;;;9.63;58.17
74615;BME280;63121;51.458;-0.110;2023-03-01T10:24:14;102866.28;;;10.00;56.73
74615;BME280;63121;51.458;-0.110;2023-03-01T10:29:13;102862.63;;;9.91;56.92
74615;BME280;63121;51.458;-0.110;2023-03-01T10:31:52;102859.03;;;9.54;57.48
74615;BME280;63121;51.458;-0.110;2023-03-01T10:34:30;102866.59;;;10.12;55.72
74615;BME280;63121;51.458;-0.110;2023-03-01T10:39:36;102866.75;;;9.86;55.66
74615;BME280;63121;51.458;-0.110;2023-03-01T10:42:13;102863.91;;;10.09;55.68
74615;BME280;63121;51.458;-0.110;2023-03-01T10:44:48;102848.97;;;9.97;54.50
74615;BME280;63121;51.458;-0.110;2023-03-01T10:47:22;102858.59;;;10.03;53.82
74615;BME280;63121;51.458;-0.110;2023-03-01T10:50:03;102850.34;;;9.51;54.67
74615;BME280;63121;51.458;-0.110;2023-03-01T10:54:58;102849.22;;;9.73;54.34
74615;BME280;63121;51.458;-0.110;2023-03-01T10:57:29;102855.25;;;10.40;52.75
74615;BME280;63121;51.458;-0.110;2023-03-01T11:00:16;102844.72;;;9.97;53.79
74615;BME280;63121;51.458;-0.110;2023-03-01T11:02:48;102843.63;;;10.23;53.81
74615;BME280;63121;51.458;-0.110;2023-03-01T11:12:52;102835.50;;;10.80;52.60
74615;BME280;63121;51.458;-0.110;2023-03-01T11:15:26;102824.16;;;10.35;53.61
74615;BME280;63121;51.458;-0.110;2023-03-01T11:17:54;102820.06;;;10.44;52.92
74615;BME280;63121;51.458;-0.110;2023-03-01T11:20:25;102821.75;;;10.08;54.71
74615;BME280;63121;51.458;-0.110;2023-03-01T11:23:02;102815.91;;;9.82;54.93
74615;BME280;63121;51.458;-0.110;2023-03-01T11:25:37;102815.47;;;9.65;55.15
74615;BME280;63121;51.458;-0.110;2023-03-01T11:28:06;102814.63;;;10.33;54.22
74615;BME280;63121;51.458;-0.110;2023-03-01T11:30:41;102804.00;;;10.57;53.11
74615;BME280;63121;51.458;-0.110;2023-03-01T11:33:35;102802.78;;;10.06;54.40
74615;BME280;63121;51.458;-0.110;2023-03-01T11:36:13;102787.94;;;10.32;53.40
74615;BME280;63121;51.458;-0.110;2023-03-01T11:38:41;102783.22;;;10.51;52.77
74615;BME280;63121;51.458;-0.110;2023-03-01T11:41:33;102786.56;;;10.86;51.85
74615;BME280;63121;51.458;-0.110;2023-03-01T11:44:00;102781.97;;;10.35;53.09
74615;BME280;63121;51.458;-0.110;2023-03-01T12:08:44;102765.13;;;10.51;55.41
74615;BME280;63121;51.458;-0.110;2023-03-01T12:11:39;102758.00;;;11.23;53.45
74615;BME280;63121;51.458;-0.110;2023-03-01T12:25:04;102736.59;;;10.86;54.07
74615;BME280;63121;51.458;-0.110;2023-03-01T12:35:54;102716.16;;;10.96;53.32
74615;BME280;63121;51.458;-0.110;2023-03-01T12:38:41;102706.41;;;11.29;53.32
74615;BME280;63121;51.458;-0.110;2023-03-01T12:44:08;102702.75;;;11.19;53.13
74615;BME280;63121;51.458;-0.110;2023-03-01T12:49:12;102696.44;;;11.03;53.56
74615;BME280;63121;51.458;-0.110;2023-03-01T12:51:40;102689.28;;;10.88;53.83
74615;BME280;63121;51.458;-0.110;2023-03-01T12:54:26;102678.97;;;11.37;52.72
74615;BME280;63121;51.458;-0.110;2023-03-01T12:56:52;102672.34;;;11.54;52.01
74615;BME280;63121;51.458;-0.110;2023-03-01T12:59:38;102672.44;;;11.60;51.89
74615;BME280;63121;51.458;-0.110;2023-03-01T13:02:31;102666.44;;;11.63;51.51
74615;BME280;63121;51.458;-0.110;2023-03-01T13:05:31;102652.72;;;11.67;51.76
74615;BME280;63121;51.458;-0.110;2023-03-01T13:08:04;102651.88;;;11.70;51.42
74615;BME280;63121;51.458;-0.110;2023-03-01T13:10:41;102642.97;;;12.07;50.36
74615;BME280;63121;51.458;-0.110;2023-03-01T13:13:28;102645.59;;;12.09;50.28
74615;BME280;63121;51.458;-0.110;2023-03-01T13:15:54;102648.22;;;11.54;51.41
74615;BME280;63121;51.458;-0.110;2023-03-01T13:20:47;102639.84;;;11.72;50.84
74615;BME280;63121;51.458;-0.110;2023-03-01T13:23:25;102651.84;;;10.68;52.41
74615;BME280;63121;51.458;-0.110;2023-03-01T13:33:57;102628.59;;;11.70;51.17
74615;BME280;63121;51.458;-0.110;2023-03-01T13:46:44;102626.81;;;11.12;51.62
74615;BME280;63121;51.458;-0.110;2023-03-01T13:49:14;102627.94;;;10.78;52.33
74615;BME280;63121;51.458;-0.110;2023-03-01T13:51:41;102628.22;;;10.93;51.26
74615;BME280;63121;51.458;-0.110;2023-03-01T13:54:11;102617.97;;;10.98;51.15
74615;BME280;63121;51.458;-0.110;2023-03-01T13:56:37;102612.22;;;11.69;49.67
74615;BME280;63121;51.458;-0.110;2023-03-01T13:59:17;102616.94;;;11.93;49.20
74615;BME280;63121;51.458;-0.110;2023-03-01T14:01:43;102611.91;;;12.04;49.11
74615;BME280;63121;51.458;-0.110;2023-03-01T14:04:37;102606.69;;;12.03;48.55
74615;BME280;63121;51.458;-0.110;2023-03-01T14:09:37;102590.16;;;11.93;49.32
74615;BME280;63121;51.458;-0.110;2023-03-01T14:15:22;102592.00;;;12.76;47.45
74615;BME280;63121;51.458;-0.110;2023-03-01T14:17:54;102589.50;;;12.86;46.96
74615;BME280;63121;51.458;-0.110;2023-03-01T14:20:23;102585.25;;;12.92;47.64
74615;BME280;63121;51.458;-0.110;2023-03-01T14:22:52;102583.38;;;12.79;47.35
74615;BME280;63121;51.458;-0.110;2023-03-01T14:25:29;102575.84;;;12.19;48.90
74615;BME280;63121;51.458;-0.110;2023-03-01T14:28:20;102571.75;;;12.40;48.74
74615;BME280;63121;51.458;-0.110;2023-03-01T14:30:49;102559.09;;;11.91;49.97
74615;BME280;63121;51.458;-0.110;2023-03-01T14:36:04;102562.59;;;12.73;48.31
74615;BME280;63121;51.458;-0.110;2023-03-01T14:38:37;102554.25;;;12.19;49.51
74615;BME280;63121;51.458;-0.110;2023-03-01T14:41:09;102548.16;;;12.12;49.35
74615;BME280;63121;51.458;-0.110;2023-03-01T14:43:43;102549.19;;;11.63;49.59
74615;BME280;63121;51.458;-0.110;2023-03-01T14:46:21;102557.50;;;11.42;50.38
74615;BME280;63121;51.458;-0.110;2023-03-01T14:48:54;102549.94;;;10.99;51.64
74615;BME280;63121;51.458;-0.110;2023-03-01T14:51:21;102544.28;;;11.22;51.39